sensor_id;sensor_type;location;lat;lon;timestamp;pressure;altitude;pressure_sealevel;temperature;humidity
72438;BME280;60444;43.534;-5.674;2024-01-15T00:01:29;101260.19;;;12.65;100.00
72438;BME280;60444;43.534;-5.674;2024-01-15T00:03:55;101255.78;;;12.62;100.00
72438;BME280;60444;43.534;-5.674;2024-01-15T00:06:20;101266.63;;;12.62;100.00
72438;BME280;60444;43.534;-5.674;2024-01-15T00:08:46;101241.81;;;12.52;100.00
72438;BME280;60444;43.534;-5.674;2024-01-15T00:11:12;101254.31;;;12.55;100.00
72438;BME280;60444;43.534;-5.674;2024-01-15T00:13:37;101259.38;;;12.63;100.00
72438;BME280;60444;43.534;-5.674;2024-01-15T00:16:04;101261.16;;;12.64;100.00
72438;BME280;60444;43.534;-5.674;2024-01-15T00:18:29;101259.28;;;12.64;100.00
72438;BME280;60444;43.534;-5.674;2024-01-15T00:20:55;101239.91;;;12.55;100.00
72438;BME280;60444;43.534;-5.674;2024-01-15T00:23:22;101232.69;;;12.53;100.00
72438;BME280;60444;43.534;-5.674;2024-01-15T00:25:48;101229.03;;;12.55;100.00
72438;BME280;60444;43.534;-5.674;2024-01-15T00:28:13;101233.41;;;12.57;100.00
72438;BME280;60444;43.534;-5.674;2024-01-15T00:30:39;101231.50;;;12.59;100.00
72438;BME280;60444;43.534;-5.674;2024-01-15T00:33:04;101231.75;;;12.55;100.00
72438;BME280;60444;43.534;-5.674;2024-01-15T00:35:30;101220.31;;;12.48;100.00
72438;BME280;60444;43.534;-5.674;2024-01-15T00:37:55;101237.97;;;12.57;100.00
72438;BME280;60444;43.534;-5.674;2024-01-15T00:40:21;101231.75;;;12.55;100.00
72438;BME280;60444;43.534;-5.674;2024-01-15T00:42:46;101206.31;;;12.38;100.00
72438;BME280;60444;43.534;-5.674;2024-01-15T00:45:12;101225.53;;;12.52;100.00
72438;BME280;60444;43.534;-5.674;2024-01-15T00:47:37;101221.38;;;12.45;100.00
72438;BME280;60444;43.534;-5.674;2024-01-15T00:50:03;101224.22;;;12.42;100.00
72438;BME280;60444;43.534;-5.674;2024-01-15T00:52:29;101215.44;;;12.37;100.00
72438;BME280;60444;43.534;-5.674;2024-01-15T00:54:54;101229.81;;;12.39;100.00
72438;BME280;60444;43.534;-5.674;2024-01-15T00:57:20;101216.31;;;12.38;100.00
72438;BME280;60444;43.534;-5.674;2024-01-15T00:59:45;101226.13;;;12.40;100.00
72438;BME280;60444;43.534;-5.674;2024-01-15T01:02:11;101213.59;;;12.38;100.00
72438;BME280;60444;43.534;-5.674;2024-01-15T01:04:36;101202.50;;;12.25;100.00
72438;BME280;60444;43.534;-5.674;2024-01-15T01:07:02;101207.84;;;12.27;100.00
72438;BME280;60444;43.534;-5.674;2024-01-15T01:09:27;101209.44;;;12.31;100.00
72438;BME280;60444;43.534;-5.674;2024-01-15T01:11:56;101195.22;;;12.26;100.00
72438;BME280;60444;43.534;-5.674;2024-01-15T01:14:21;101212.97;;;12.33;100.00
72438;BME280;60444;43.534;-5.674;2024-01-15T01:16:47;101196.91;;;12.28;100.00
72438;BME280;60444;43.534;-5.674;2024-01-15T01:19:12;101210.16;;;12.34;100.00
72438;BME280;60444;43.534;-5.674;2024-01-15T01:21:38;101198.72;;;12.28;100.00
72438;BME280;60444;43.534;-5.674;2024-01-15T01:24:03;101213.75;;;12.35;100.00
72438;BME280;60444;43.534;-5.674;2024-01-15T01:26:30;101205.47;;;12.38;100.00
72438;BME280;60444;43.534;-5.674;2024-01-15T01:28:55;101205.56;;;12.36;100.00
72438;BME280;60444;43.534;-5.674;2024-01-15T01:31:21;101202.69;;;12.39;100.00
72438;BME280;60444;43.534;-5.674;2024-01-15T01:33:46;101205.38;;;12.39;100.00
72438;BME280;60444;43.534;-5.674;2024-01-15T01:36:12;101212.44;;;12.43;100.00
72438;BME280;60444;43.534;-5.674;2024-01-15T01:38:40;101184.06;;;12.32;100.00
72438;BME280;60444;43.534;-5.674;2024-01-15T01:41:05;101187.34;;;12.38;100.00
72438;BME280;60444;43.534;-5.674;2024-01-15T01:43:31;101188.94;;;12.42;100.00
72438;BME280;60444;43.534;-5.674;2024-01-15T01:45:57;101189.13;;;12.39;100.00
72438;BME280;60444;43.534;-5.674;2024-01-15T01:48:26;101181.06;;;12.38;100.00
72438;BME280;60444;43.534;-5.674;2024-01-15T01:50:57;101190.72;;;12.43;100.00
72438;BME280;60444;43.534;-5.674;2024-01-15T01:53:25;101183.75;;;12.38;100.00
72438;BME280;60444;43.534;-5.674;2024-01-15T01:55:52;101196.16;;;12.43;100.00
72438;BME280;60444;43.534;-5.674;2024-01-15T01:58:19;101176.47;;;12.38;100.00
72438;BME280;60444;43.534;-5.674;2024-01-15T02:00:46;101175.53;;;12.39;100.00
72438;BME280;60444;43.534;-5.674;2024-01-15T02:03:12;101182.41;;;12.46;100.00
72438;BME280;60444;43.534;-5.674;2024-01-15T02:05:39;101188.72;;;12.47;100.00
72438;BME280;60444;43.534;-5.674;2024-01-15T02:08:05;101164.88;;;12.36;100.00
72438;BME280;60444;43.534;-5.674;2024-01-15T02:10:31;101175.28;;;12.44;100.00
72438;BME280;60444;43.534;-5.674;2024-01-15T02:12:56;101165.72;;;12.37;100.00
72438;BME280;60444;43.534;-5.674;2024-01-15T02:15:22;101170.94;;;12.41;100.00
72438;BME280;60444;43.534;-5.674;2024-01-15T02:18:03;101158.97;;;12.45;100.00
72438;BME280;60444;43.534;-5.674;2024-01-15T02:20:30;101165.13;;;12.49;100.00
72438;BME280;60444;43.534;-5.674;2024-01-15T02:23:12;101160.72;;;12.46;100.00
72438;BME280;60444;43.534;-5.674;2024-01-15T02:25:39;101157.75;;;12.51;100.00
72438;BME280;60444;43.534;-5.674;2024-01-15T02:28:06;101167.56;;;12.53;100.00
72438;BME280;60444;43.534;-5.674;2024-01-15T02:30:36;101164.88;;;12.53;100.00
72438;BME280;60444;43.534;-5.674;2024-01-15T02:33:03;101144.66;;;12.42;100.00
72438;BME280;60444;43.534;-5.674;2024-01-15T02:35:28;101146.97;;;12.49;100.00
72438;BME280;60444;43.534;-5.674;2024-01-15T02:37:54;101146.16;;;12.47;100.00
72438;BME280;60444;43.534;-5.674;2024-01-15T02:40:19;101150.34;;;12.55;100.00
72438;BME280;60444;43.534;-5.674;2024-01-15T02:42:49;101139.56;;;12.53;100.00
72438;BME280;60444;43.534;-5.674;2024-01-15T02:45:14;101142.25;;;12.53;100.00
72438;BME280;60444;43.534;-5.674;2024-01-15T02:47:40;101151.13;;;12.57;100.00
72438;BME280;60444;43.534;-5.674;2024-01-15T02:50:06;101143.78;;;12.59;100.00
72438;BME280;60444;43.534;-5.674;2024-01-15T02:52:31;101142.75;;;12.61;100.00
72438;BME280;60444;43.534;-5.674;2024-01-15T02:54:57;101125.94;;;12.55;100.00
72438;BME280;60444;43.534;-5.674;2024-01-15T02:57:22;101137.25;;;12.63;100.00
72438;BME280;60444;43.534;-5.674;2024-01-15T02:59:48;101132.78;;;12.62;100.00
72438;BME280;60444;43.534;-5.674;2024-01-15T03:02:13;101118.50;;;12.58;100.00
72438;BME280;60444;43.534;-5.674;2024-01-15T03:04:43;101126.31;;;12.64;100.00
72438;BME280;60444;43.534;-5.674;2024-01-15T03:07:09;101116.56;;;12.60;100.00
72438;BME280;60444;43.534;-5.674;2024-01-15T03:09:34;101120.34;;;12.58;100.00
72438;BME280;60444;43.534;-5.674;2024-01-15T03:12:00;101118.34;;;12.61;100.00
72438;BME280;60444;43.534;-5.674;2024-01-15T03:14:25;101125.50;;;12.62;100.00
72438;BME280;60444;43.534;-5.674;2024-01-15T03:16:52;101117.38;;;12.62;100.00
72438;BME280;60444;43.534;-5.674;2024-01-15T03:19:17;101103.09;;;12.59;100.00
72438;BME280;60444;43.534;-5.674;2024-01-15T03:21:43;101096.84;;;12.57;100.00
72438;BME280;60444;43.534;-5.674;2024-01-15T03:24:08;101102.28;;;12.57;100.00
72438;BME280;60444;43.534;-5.674;2024-01-15T03:26:34;101097.03;;;12.53;100.00
72438;BME280;60444;43.534;-5.674;2024-01-15T03:28:59;101100.63;;;12.54;100.00
72438;BME280;60444;43.534;-5.674;2024-01-15T03:31:25;101091.78;;;12.50;100.00
72438;BME280;60444;43.534;-5.674;2024-01-15T03:33:50;101098.81;;;12.55;100.00
72438;BME280;60444;43.534;-5.674;2024-01-15T03:36:16;101099.81;;;12.52;100.00
72438;BME280;60444;43.534;-5.674;2024-01-15T03:38:44;101102.28;;;12.57;100.00
72438;BME280;60444;43.534;-5.674;2024-01-15T03:41:09;101090.09;;;12.48;100.00
72438;BME280;60444;43.534;-5.674;2024-01-15T03:43:35;101093.44;;;12.53;100.00
72438;BME280;60444;43.534;-5.674;2024-01-15T03:46:00;101079.50;;;12.43;100.00
72438;BME280;60444;43.534;-5.674;2024-01-15T03:48:27;101077.56;;;12.45;100.00
72438;BME280;60444;43.534;-5.674;2024-01-15T03:50:52;101069.56;;;12.42;100.00
72438;BME280;60444;43.534;-5.674;2024-01-15T03:53:18;101069.44;;;12.45;100.00
72438;BME280;60444;43.534;-5.674;2024-01-15T03:55:44;101058.72;;;12.42;100.00
72438;BME280;60444;43.534;-5.674;2024-01-15T03:58:09;101064.88;;;12.46;100.00
72438;BME280;60444;43.534;-5.674;2024-01-15T04:00:35;101067.25;;;12.52;100.00
72438;BME280;60444;43.534;-5.674;2024-01-15T04:03:00;101054.91;;;12.46;100.00
72438;BME280;60444;43.534;-5.674;2024-01-15T04:05:26;101055.78;;;12.47;100.00
72438;BME280;60444;43.534;-5.674;2024-01-15T04:07:51;101055.63;;;12.50;100.00
72438;BME280;60444;43.534;-5.674;2024-01-15T04:10:17;101063.44;;;12.56;100.00
72438;BME280;60444;43.534;-5.674;2024-01-15T04:12:42;101050.81;;;12.55;100.00
72438;BME280;60444;43.534;-5.674;2024-01-15T04:15:08;101028.56;;;12.48;100.00
72438;BME280;60444;43.534;-5.674;2024-01-15T04:17:34;101029.09;;;12.55;100.00
72438;BME280;60444;43.534;-5.674;2024-01-15T04:19:59;101044.97;;;12.63;100.00
72438;BME280;60444;43.534;-5.674;2024-01-15T04:22:26;101014.75;;;12.53;100.00
72438;BME280;60444;43.534;-5.674;2024-01-15T04:24:52;101020.56;;;12.63;100.00
72438;BME280;60444;43.534;-5.674;2024-01-15T04:27:17;101009.97;;;12.58;100.00
72438;BME280;60444;43.534;-5.674;2024-01-15T04:29:42;101006.09;;;12.62;100.00
72438;BME280;60444;43.534;-5.674;2024-01-15T04:32:09;101007.16;;;12.60;100.00
72438;BME280;60444;43.534;-5.674;2024-01-15T04:34:35;100997.44;;;12.56;100.00
72438;BME280;60444;43.534;-5.674;2024-01-15T04:37:01;101003.47;;;12.61;100.00
72438;BME280;60444;43.534;-5.674;2024-01-15T04:39:26;101002.34;;;12.65;100.00
72438;BME280;60444;43.534;-5.674;2024-01-15T04:41:52;100995.50;;;12.58;100.00
72438;BME280;60444;43.534;-5.674;2024-01-15T04:44:18;100987.47;;;12.56;100.00
72438;BME280;60444;43.534;-5.674;2024-01-15T04:46:43;100997.03;;;12.63;100.00
72438;BME280;60444;43.534;-5.674;2024-01-15T04:49:09;100993.41;;;12.63;100.00
72438;BME280;60444;43.534;-5.674;2024-01-15T04:51:35;100981.16;;;12.56;100.00
72438;BME280;60444;43.534;-5.674;2024-01-15T04:54:01;100973.81;;;12.58;100.00
72438;BME280;60444;43.534;-5.674;2024-01-15T04:56:26;100975.63;;;12.57;100.00
72438;BME280;60444;43.534;-5.674;2024-01-15T04:58:52;100993.09;;;12.69;100.00
72438;BME280;60444;43.534;-5.674;2024-01-15T05:01:17;100992.53;;;12.62;100.00
72438;BME280;60444;43.534;-5.674;2024-01-15T05:03:43;101006.56;;;12.70;100.00
72438;BME280;60444;43.534;-5.674;2024-01-15T05:06:09;100996.13;;;12.63;100.00
72438;BME280;60444;43.534;-5.674;2024-01-15T05:08:34;100997.72;;;12.67;100.00
72438;BME280;60444;43.534;-5.674;2024-01-15T05:11:00;100997.91;;;12.64;100.00
72438;BME280;60444;43.534;-5.674;2024-01-15T05:13:28;100998.75;;;12.64;100.00
72438;BME280;60444;43.534;-5.674;2024-01-15T05:15:53;100999.47;;;12.68;100.00
72438;BME280;60444;43.534;-5.674;2024-01-15T05:18:19;100995.91;;;12.67;100.00
72438;BME280;60444;43.534;-5.674;2024-01-15T05:20:44;100983.44;;;12.63;100.00
72438;BME280;60444;43.534;-5.674;2024-01-15T05:23:10;100982.34;;;12.67;100.00
72438;BME280;60444;43.534;-5.674;2024-01-15T05:25:35;100984.88;;;12.70;100.00
72438;BME280;60444;43.534;-5.674;2024-01-15T05:28:01;100974.25;;;12.66;100.00
72438;BME280;60444;43.534;-5.674;2024-01-15T05:30:27;100980.31;;;12.71;100.00
72438;BME280;60444;43.534;-5.674;2024-01-15T05:32:53;100976.81;;;12.69;100.00
72438;BME280;60444;43.534;-5.674;2024-01-15T05:35:19;100961.13;;;12.58;100.00
72438;BME280;60444;43.534;-5.674;2024-01-15T05:37:45;100974.69;;;12.58;100.00
72438;BME280;60444;43.534;-5.674;2024-01-15T05:40:12;100971.78;;;12.61;100.00
72438;BME280;60444;43.534;-5.674;2024-01-15T05:42:38;100949.72;;;12.51;100.00
72438;BME280;60444;43.534;-5.674;2024-01-15T05:45:05;100968.38;;;12.58;100.00
72438;BME280;60444;43.534;-5.674;2024-01-15T05:47:31;100970.78;;;12.64;100.00
72438;BME280;60444;43.534;-5.674;2024-01-15T05:49:57;100973.47;;;12.64;100.00
72438;BME280;60444;43.534;-5.674;2024-01-15T05:52:23;100982.25;;;12.69;100.00
72438;BME280;60444;43.534;-5.674;2024-01-15T05:54:49;100980.56;;;12.66;100.00
72438;BME280;60444;43.534;-5.674;2024-01-15T05:57:15;100982.25;;;12.69;100.00
72438;BME280;60444;43.534;-5.674;2024-01-15T05:59:41;100962.06;;;12.57;100.00
72438;BME280;60444;43.534;-5.674;2024-01-15T06:02:06;100976.09;;;12.65;100.00
72438;BME280;60444;43.534;-5.674;2024-01-15T06:04:32;100973.53;;;12.62;100.00
72438;BME280;60444;43.534;-5.674;2024-01-15T06:06:57;100988.53;;;12.69;100.00
72438;BME280;60444;43.534;-5.674;2024-01-15T06:09:23;100974.75;;;12.57;100.00
72438;BME280;60444;43.534;-5.674;2024-01-15T06:11:49;100986.16;;;12.63;100.00
72438;BME280;60444;43.534;-5.674;2024-01-15T06:14:14;100975.53;;;12.59;100.00
72438;BME280;60444;43.534;-5.674;2024-01-15T06:16:40;100986.88;;;12.67;100.00
72438;BME280;60444;43.534;-5.674;2024-01-15T06:19:05;100970.13;;;12.59;100.00
72438;BME280;60444;43.534;-5.674;2024-01-15T06:21:31;100982.47;;;12.64;100.00
72438;BME280;60444;43.534;-5.674;2024-01-15T06:23:56;100982.56;;;12.63;100.00
72438;BME280;60444;43.534;-5.674;2024-01-15T06:26:22;100986.25;;;12.62;100.00
72438;BME280;60444;43.534;-5.674;2024-01-15T06:28:48;100971.19;;;12.56;100.00
72438;BME280;60444;43.534;-5.674;2024-01-15T06:31:13;100987.28;;;12.59;100.00
72438;BME280;60444;43.534;-5.674;2024-01-15T06:33:39;100979.41;;;12.55;100.00
72438;BME280;60444;43.534;-5.674;2024-01-15T06:36:05;100990.63;;;12.64;100.00
72438;BME280;60444;43.534;-5.674;2024-01-15T06:38:31;100954.25;;;12.51;100.00
72438;BME280;60444;43.534;-5.674;2024-01-15T06:40:56;100969.41;;;12.55;100.00
72438;BME280;60444;43.534;-5.674;2024-01-15T06:43:22;100980.66;;;12.65;100.00
72438;BME280;60444;43.534;-5.674;2024-01-15T06:45:48;100989.75;;;12.64;100.00
72438;BME280;60444;43.534;-5.674;2024-01-15T06:48:13;100978.09;;;12.62;100.00
72438;BME280;60444;43.534;-5.674;2024-01-15T06:50:42;100976.19;;;12.64;100.00
72438;BME280;60444;43.534;-5.674;2024-01-15T06:53:07;100963.84;;;12.58;100.00
72438;BME280;60444;43.534;-5.674;2024-01-15T06:55:33;100978.91;;;12.64;100.00
72438;BME280;60444;43.534;-5.674;2024-01-15T06:57:58;100974.34;;;12.64;100.00
72438;BME280;60444;43.534;-5.674;2024-01-15T07:00:24;100959.44;;;12.56;100.00
72438;BME280;60444;43.534;-5.674;2024-01-15T07:02:49;100977.94;;;12.65;100.00
72438;BME280;60444;43.534;-5.674;2024-01-15T07:05:15;100967.31;;;12.60;100.00
72438;BME280;60444;43.534;-5.674;2024-01-15T07:07:40;100971.09;;;12.58;100.00
72438;BME280;60444;43.534;-5.674;2024-01-15T07:10:07;100989.69;;;12.65;100.00
72438;BME280;60444;43.534;-5.674;2024-01-15T07:12:32;100985.28;;;12.63;100.00
72438;BME280;60444;43.534;-5.674;2024-01-15T07:14:58;100986.31;;;12.60;100.00
72438;BME280;60444;43.534;-5.674;2024-01-15T07:17:24;101000.44;;;12.67;100.00
72438;BME280;60444;43.534;-5.674;2024-01-15T07:19:49;100993.41;;;12.63;100.00
72438;BME280;60444;43.534;-5.674;2024-01-15T07:22:15;100993.25;;;12.66;100.00
72438;BME280;60444;43.534;-5.674;2024-01-15T07:24:43;100973.63;;;12.61;100.00
72438;BME280;60444;43.534;-5.674;2024-01-15T07:27:09;100986.16;;;12.63;100.00
72438;BME280;60444;43.534;-5.674;2024-01-15T07:29:35;100989.59;;;12.67;100.00
72438;BME280;60444;43.534;-5.674;2024-01-15T07:32:03;100996.94;;;12.65;100.00
72438;BME280;60444;43.534;-5.674;2024-01-15T07:34:29;100991.69;;;12.62;100.00
72438;BME280;60444;43.534;-5.674;2024-01-15T07:36:54;100981.75;;;12.61;100.00
72438;BME280;60444;43.534;-5.674;2024-01-15T07:39:20;101002.09;;;12.69;100.00
72438;BME280;60444;43.534;-5.674;2024-01-15T07:41:45;101001.47;;;12.64;100.00
72438;BME280;60444;43.534;-5.674;2024-01-15T07:44:11;100980.13;;;12.58;100.00
72438;BME280;60444;43.534;-5.674;2024-01-15T07:46:36;101000.44;;;12.67;100.00
72438;BME280;60444;43.534;-5.674;2024-01-15T07:49:02;100992.53;;;12.62;100.00
72438;BME280;60444;43.534;-5.674;2024-01-15T07:51:28;101014.09;;;12.65;100.00
72438;BME280;60444;43.534;-5.674;2024-01-15T07:53:54;100993.91;;;12.53;100.00
72438;BME280;60444;43.534;-5.674;2024-01-15T07:56:23;100991.13;;;12.55;100.00
72438;BME280;60444;43.534;-5.674;2024-01-15T07:58:48;100997.91;;;12.64;100.00
72438;BME280;60444;43.534;-5.674;2024-01-15T08:01:14;100995.34;;;12.61;100.00
72438;BME280;60444;43.534;-5.674;2024-01-15T08:03:39;101012.25;;;12.66;100.00
72438;BME280;60444;43.534;-5.674;2024-01-15T08:06:05;101011.53;;;12.62;100.00
72438;BME280;60444;43.534;-5.674;2024-01-15T08:08:31;101023.09;;;12.66;100.00
72438;BME280;60444;43.534;-5.674;2024-01-15T08:10:56;101005.16;;;12.63;100.00
72438;BME280;60444;43.534;-5.674;2024-01-15T08:13:22;101010.72;;;12.60;100.00
72438;BME280;60444;43.534;-5.674;2024-01-15T08:15:48;101043.25;;;12.62;100.00
72438;BME280;60444;43.534;-5.674;2024-01-15T08:18:13;101054.91;;;12.64;100.00
72438;BME280;60444;43.534;-5.674;2024-01-15T08:20:39;101073.63;;;12.68;100.00
72438;BME280;60444;43.534;-5.674;2024-01-15T08:23:05;101072.22;;;12.61;100.00
72438;BME280;60444;43.534;-5.674;2024-01-15T08:25:30;101096.22;;;12.69;100.00
72438;BME280;60444;43.534;-5.674;2024-01-15T08:27:56;101081.22;;;12.62;100.00
72438;BME280;60444;43.534;-5.674;2024-01-15T08:30:23;101072.91;;;12.65;100.00
72438;BME280;60444;43.534;-5.674;2024-01-15T08:32:53;101075.63;;;12.65;100.00
72438;BME280;60444;43.534;-5.674;2024-01-15T08:35:19;101090.44;;;12.75;100.00
72438;BME280;60444;43.534;-5.674;2024-01-15T08:37:49;101092.31;;;12.74;100.00
72438;BME280;60444;43.534;-5.674;2024-01-15T08:40:15;101087.50;;;12.79;100.00
72438;BME280;60444;43.534;-5.674;2024-01-15T08:42:41;101076.03;;;12.74;100.00
72438;BME280;60444;43.534;-5.674;2024-01-15T08:45:08;101068.81;;;12.73;100.00
72438;BME280;60444;43.534;-5.674;2024-01-15T08:47:34;101093.47;;;12.86;100.00
72438;BME280;60444;43.534;-5.674;2024-01-15T08:49:59;101090.31;;;12.78;100.00
72438;BME280;60444;43.534;-5.674;2024-01-15T08:52:25;101107.03;;;12.86;100.00
72438;BME280;60444;43.534;-5.674;2024-01-15T08:54:51;101097.88;;;12.88;100.00
72438;BME280;60444;43.534;-5.674;2024-01-15T08:57:16;101088.03;;;12.86;100.00
72438;BME280;60444;43.534;-5.674;2024-01-15T08:59:42;101088.84;;;12.88;100.00
72438;BME280;60444;43.534;-5.674;2024-01-15T09:02:07;101094.19;;;12.89;100.00
72438;BME280;60444;43.534;-5.674;2024-01-15T09:04:33;101107.34;;;12.97;100.00
72438;BME280;60444;43.534;-5.674;2024-01-15T09:06:58;101117.09;;;13.01;100.00
72438;BME280;60444;43.534;-5.674;2024-01-15T09:09:24;101115.41;;;12.98;100.00
72438;BME280;60444;43.534;-5.674;2024-01-15T09:11:51;101124.25;;;13.03;100.00
72438;BME280;60444;43.534;-5.674;2024-01-15T09:14:16;101120.75;;;13.00;100.00
72438;BME280;60444;43.534;-5.674;2024-01-15T09:16:42;101123.56;;;12.98;100.00
72438;BME280;60444;43.534;-5.674;2024-01-15T09:19:07;101132.22;;;13.06;100.00
72438;BME280;60444;43.534;-5.674;2024-01-15T09:21:33;101130.53;;;13.04;100.00
72438;BME280;60444;43.534;-5.674;2024-01-15T09:23:58;101138.19;;;13.13;100.00
72438;BME280;60444;43.534;-5.674;2024-01-15T09:26:24;101123.00;;;13.09;100.00
72438;BME280;60444;43.534;-5.674;2024-01-15T09:28:49;101116.72;;;13.08;100.00
72438;BME280;60444;43.534;-5.674;2024-01-15T09:31:15;101124.59;;;13.13;100.00
72438;BME280;60444;43.534;-5.674;2024-01-15T09:33:42;101118.38;;;13.11;100.00
72438;BME280;60444;43.534;-5.674;2024-01-15T09:36:08;101147.50;;;13.24;100.00
72438;BME280;60444;43.534;-5.674;2024-01-15T09:38:34;101127.09;;;13.17;100.00
72438;BME280;60444;43.534;-5.674;2024-01-15T09:41:00;101146.13;;;13.33;100.00
72438;BME280;60444;43.534;-5.674;2024-01-15T09:43:25;101124.66;;;13.28;100.00
72438;BME280;60444;43.534;-5.674;2024-01-15T09:45:51;101118.34;;;13.28;100.00
72438;BME280;60444;43.534;-5.674;2024-01-15T09:48:18;101154.38;;;13.47;100.00
72438;BME280;60444;43.534;-5.674;2024-01-15T09:50:44;101146.41;;;13.44;100.00
72438;BME280;60444;43.534;-5.674;2024-01-15T09:53:09;101139.94;;;13.46;100.00
72438;BME280;60444;43.534;-5.674;2024-01-15T09:55:38;101149.09;;;13.61;100.00
72438;BME280;60444;43.534;-5.674;2024-01-15T09:58:03;101134.59;;;13.61;100.00
72438;BME280;60444;43.534;-5.674;2024-01-15T10:00:29;101146.88;;;13.68;100.00
72438;BME280;60444;43.534;-5.674;2024-01-15T10:02:56;101161.47;;;13.82;100.00
72438;BME280;60444;43.534;-5.674;2024-01-15T10:05:22;101161.28;;;13.85;100.00
72438;BME280;60444;43.534;-5.674;2024-01-15T10:07:47;101170.75;;;13.94;100.00
72438;BME280;60444;43.534;-5.674;2024-01-15T10:10:15;101171.19;;;14.02;100.00
72438;BME280;60444;43.534;-5.674;2024-01-15T10:12:41;101173.63;;;14.06;100.00
72438;BME280;60444;43.534;-5.674;2024-01-15T10:15:10;101188.13;;;14.22;100.00
72438;BME280;60444;43.534;-5.674;2024-01-15T10:17:38;101177.16;;;14.24;100.00
72438;BME280;60444;43.534;-5.674;2024-01-15T10:20:10;101170.69;;;14.26;100.00
72438;BME280;60444;43.534;-5.674;2024-01-15T10:22:40;101180.50;;;14.29;100.00
72438;BME280;60444;43.534;-5.674;2024-01-15T10:25:06;101186.47;;;14.35;100.00
72438;BME280;60444;43.534;-5.674;2024-01-15T10:27:31;101187.63;;;14.31;100.00
72438;BME280;60444;43.534;-5.674;2024-01-15T10:30:00;101204.47;;;14.38;100.00
72438;BME280;60444;43.534;-5.674;2024-01-15T10:32:27;101193.94;;;14.32;100.00
72438;BME280;60444;43.534;-5.674;2024-01-15T10:34:54;101205.50;;;14.35;100.00
72438;BME280;60444;43.534;-5.674;2024-01-15T10:37:20;101197.53;;;14.32;100.00
72438;BME280;60444;43.534;-5.674;2024-01-15T10:39:48;101217.03;;;14.40;100.00
72438;BME280;60444;43.534;-5.674;2024-01-15T10:42:16;101221.31;;;14.44;100.00
72438;BME280;60444;43.534;-5.674;2024-01-15T10:44:43;101206.22;;;14.39;100.00
72438;BME280;60444;43.534;-5.674;2024-01-15T10:47:10;101198.53;;;14.31;100.00
72438;BME280;60444;43.534;-5.674;2024-01-15T10:49:36;101218.44;;;14.47;100.00
72438;BME280;60444;43.534;-5.674;2024-01-15T10:52:03;101211.50;;;14.42;100.00
72438;BME280;60444;43.534;-5.674;2024-01-15T10:54:29;101210.31;;;14.46;100.00
72438;BME280;60444;43.534;-5.674;2024-01-15T10:56:56;101208.59;;;14.45;100.00
72438;BME280;60444;43.534;-5.674;2024-01-15T10:59:21;101221.56;;;14.55;100.00
72438;BME280;60444;43.534;-5.674;2024-01-15T11:01:52;101225.06;;;14.57;100.00
72438;BME280;60444;43.534;-5.674;2024-01-15T11:04:21;101233.06;;;14.61;100.00
72438;BME280;60444;43.534;-5.674;2024-01-15T11:06:53;101214.72;;;14.48;100.00
72438;BME280;60444;43.534;-5.674;2024-01-15T11:09:19;101216.41;;;14.51;100.00
72438;BME280;60444;43.534;-5.674;2024-01-15T11:11:45;101225.69;;;14.63;100.00
72438;BME280;60444;43.534;-5.674;2024-01-15T11:14:50;101225.69;;;14.63;100.00
72438;BME280;60444;43.534;-5.674;2024-01-15T11:17:20;101215.56;;;14.65;100.00
72438;BME280;60444;43.534;-5.674;2024-01-15T11:19:48;101221.81;;;14.67;100.00
72438;BME280;60444;43.534;-5.674;2024-01-15T11:24:57;101208.69;;;14.73;100.00
72438;BME280;60444;43.534;-5.674;2024-01-15T11:27:44;101212.03;;;14.78;100.00
72438;BME280;60444;43.534;-5.674;2024-01-15T11:30:13;101187.00;;;14.72;100.00
72438;BME280;60444;43.534;-5.674;2024-01-15T11:32:39;101189.09;;;14.82;100.00
72438;BME280;60444;43.534;-5.674;2024-01-15T11:35:09;101181.91;;;14.81;100.00
72438;BME280;60444;43.534;-5.674;2024-01-15T11:40:36;101185.78;;;14.91;100.00
72438;BME280;60444;43.534;-5.674;2024-01-15T11:43:03;101172.69;;;14.84;100.00
72438;BME280;60444;43.534;-5.674;2024-01-15T11:45:30;101200.91;;;14.97;100.00
72438;BME280;60444;43.534;-5.674;2024-01-15T11:48:15;101206.19;;;15.00;100.00
72438;BME280;60444;43.534;-5.674;2024-01-15T11:50:46;101186.69;;;14.92;100.00
72438;BME280;60444;43.534;-5.674;2024-01-15T11:56:02;101186.31;;;14.98;100.00
72438;BME280;60444;43.534;-5.674;2024-01-15T11:58:28;101186.13;;;15.01;100.00
72438;BME280;60444;43.534;-5.674;2024-01-15T12:00:54;101152.25;;;14.91;100.00
72438;BME280;60444;43.534;-5.674;2024-01-15T12:03:23;101173.28;;;15.03;100.00
72438;BME280;60444;43.534;-5.674;2024-01-15T12:05:49;101169.69;;;15.02;100.00
72438;BME280;60444;43.534;-5.674;2024-01-15T12:08:15;101175.66;;;15.09;100.00
72438;BME280;60444;43.534;-5.674;2024-01-15T12:10:45;101169.41;;;15.07;100.00
72438;BME280;60444;43.534;-5.674;2024-01-15T12:13:15;101170.78;;;15.14;100.00
72438;BME280;60444;43.534;-5.674;2024-01-15T12:15:42;101167.84;;;15.03;100.00
72438;BME280;60444;43.534;-5.674;2024-01-15T12:18:09;101169.91;;;15.13;100.00
72438;BME280;60444;43.534;-5.674;2024-01-15T12:20:35;101168.84;;;15.16;100.00
72438;BME280;60444;43.534;-5.674;2024-01-15T12:23:02;101169.72;;;15.16;100.00
72438;BME280;60444;43.534;-5.674;2024-01-15T12:25:31;101162.31;;;15.18;100.00
72438;BME280;60444;43.534;-5.674;2024-01-15T12:27:58;101165.72;;;15.22;100.00
72438;BME280;60444;43.534;-5.674;2024-01-15T12:30:26;101146.84;;;15.19;100.00
72438;BME280;60444;43.534;-5.674;2024-01-15T12:32:51;101148.31;;;15.24;100.00
72438;BME280;60444;43.534;-5.674;2024-01-15T12:35:17;101138.56;;;15.20;100.00